Time;durP1;ratioP1;P1;durP2;ratioP2;P2;SDS_P1;SDS_P2;PMS_P1;PMS_P2;Temp;Humidity;BMP_temperature;BMP_pressure;BME280_temperature;BME280_humidity;BME280_pressure;Samples;Min_cycle;Max_cycle;Signal;HPM_P1;HPM_P2
2022/02/17 00:04:54;;;;;;;0.77;0.30;;;-0.90;99.90;;;;;;21076469;28;20074;-45
2022/02/17 00:14:57;;;;;;;0.43;0.20;;;-1.00;99.90;;;;;;21075773;28;20040;-45
2022/02/17 00:25:04;;;;;;;0.80;0.30;;;-1.20;99.90;;;;;;21076116;28;20044;-45
2022/02/17 00:35:08;;;;;;;0.47;0.20;;;-1.20;99.90;;;;;;21075444;28;20383;-47
2022/02/17 00:45:10;;;;;;;0.85;0.40;;;-1.10;99.90;;;;;;21073466;28;20177;-46
2022/02/17 00:55:12;;;;;;;0.90;0.40;;;-1.20;99.90;;;;;;21072445;28;20082;-46
2022/02/17 01:05:15;;;;;;;0.43;0.25;;;-0.90;99.90;;;;;;21055127;28;20032;-45
2022/02/17 01:15:17;;;;;;;0.63;0.30;;;-0.80;99.90;;;;;;21054212;28;20123;-46
2022/02/17 01:25:21;;;;;;;0.63;0.28;;;-0.50;99.90;;;;;;21070303;28;20040;-47
2022/02/17 01:35:24;;;;;;;0.80;0.40;;;0.20;99.90;;;;;;21070360;28;20028;-46
2022/02/17 01:45:39;;;;;;;1.05;0.45;;;0.10;99.90;;;;;;21068949;28;20160;-47
2022/02/17 01:55:46;;;;;;;0.50;0.30;;;-0.40;99.90;;;;;;21068790;28;20108;-45
2022/02/17 02:05:49;;;;;;;0.75;0.40;;;-0.70;99.90;;;;;;21050328;28;20036;-46
2022/02/17 02:15:54;;;;;;;1.40;0.63;;;-0.80;99.90;;;;;;21066316;28;20089;-46
2022/02/17 02:25:58;;;;;;;1.02;0.50;;;-0.60;99.90;;;;;;21065913;28;20028;-47
2022/02/17 02:36:07;;;;;;;1.58;0.50;;;1.00;99.90;;;;;;21034282;28;20317;-47
2022/02/17 02:46:09;;;;;;;0.63;0.43;;;3.50;99.90;;;;;;21065199;28;20032;-46
2022/02/17 02:56:12;;;;;;;1.88;0.70;;;1.60;99.90;;;;;;21047860;28;20059;-46
2022/02/17 03:06:17;;;;;;;1.55;0.98;;;0.30;99.90;;;;;;21064145;28;20093;-45
2022/02/17 03:16:20;;;;;;;1.20;0.65;;;-0.10;99.90;;;;;;21065188;28;20044;-45
2022/02/17 03:26:22;;;;;;;1.23;0.60;;;-0.10;99.90;;;;;;21063520;28;20036;-46
2022/02/17 03:36:33;;;;;;;0.80;0.40;;;1.20;99.90;;;;;;21075659;28;20040;-45
2022/02/17 03:46:36;;;;;;;3.05;1.27;;;1.90;99.90;;;;;;21079079;28;20021;-45
2022/02/17 03:56:41;;;;;;;2.40;1.45;;;1.80;99.90;;;;;;21077293;28;20048;-45
2022/02/17 04:06:59;;;;;;;2.08;1.10;;;1.40;99.90;;;;;;21052864;28;20040;-46
2022/02/17 04:17:02;;;;;;;2.92;1.30;;;1.80;99.90;;;;;;21076057;28;20402;-46
2022/02/17 04:27:31;;;;;;;0.05;0.00;;;2.10;99.90;;;;;;20854094;28;20042;-48
2022/02/17 04:37:41;;;;;;;3.10;1.80;;;2.10;99.90;;;;;;20847542;28;20569;-48
2022/02/17 04:47:46;;;;;;;2.38;1.60;;;3.70;99.90;;;;;;20833338;28;20042;-47
2022/02/17 04:57:49;;;;;;;4.05;2.30;;;2.00;99.90;;;;;;20886783;28;20070;-46
2022/02/17 05:07:51;;;;;;;1.38;0.77;;;0.80;99.90;;;;;;21071789;28;20040;-47
2022/02/17 05:17:57;;;;;;;4.22;2.47;;;0.70;99.90;;;;;;21070878;28;20032;-47
2022/02/17 05:27:59;;;;;;;0.10;0.00;;;2.00;99.90;;;;;;21070226;28;20058;-48
2022/02/17 05:38:22;;;;;;;2.17;1.40;;;1.90;99.90;;;;;;20857879;28;20494;-49
2022/02/17 05:48:42;;;;;;;4.55;1.95;;;4.10;99.90;;;;;;20816357;28;20118;-50
2022/02/17 05:59:04;;;;;;;3.53;2.03;;;1.90;99.90;;;;;;20866135;28;20045;-50
2022/02/17 06:09:06;;;;;;;3.70;2.03;;;0.40;99.90;;;;;;20885091;28;20047;-49
2022/02/17 06:19:09;;;;;;;3.38;1.90;;;-0.30;99.90;;;;;;21066206;28;20058;-47
2022/02/17 06:29:11;;;;;;;5.05;1.73;;;0.10;99.90;;;;;;21065770;28;20036;-46
2022/02/17 06:39:14;;;;;;;2.83;1.48;;;0.20;99.90;;;;;;21065813;28;20036;-48
2022/02/17 06:49:17;;;;;;;4.10;1.80;;;0.00;99.90;;;;;;21065448;28;20056;-46
2022/02/17 06:59:19;;;;;;;4.38;2.10;;;-0.10;99.90;;;;;;21064659;28;20109;-45
2022/02/17 07:09:23;;;;;;;6.40;2.15;;;0.10;99.90;;;;;;21074229;28;20567;-46
2022/02/17 07:19:29;;;;;;;4.50;2.20;;;0.00;99.90;;;;;;21081443;28;20510;-45
2022/02/17 07:29:32;;;;;;;4.70;2.50;;;0.00;99.90;;;;;;21079682;28;20039;-45
2022/02/17 07:39:34;;;;;;;2.90;1.83;;;0.10;99.90;;;;;;21078592;28;20036;-44
2022/02/17 07:49:57;;;;;;;2.58;1.60;;;1.00;99.90;;;;;;21099010;28;20503;-45
2022/02/17 08:00:04;;;;;;;3.15;1.90;;;1.90;99.90;;;;;;21061739;28;20569;-45
2022/02/17 08:10:15;;;;;;;3.30;2.28;;;2.90;99.90;;;;;;21076505;28;20098;-50
2022/02/17 08:20:17;;;;;;;3.67;2.10;;;3.70;99.90;;;;;;21074400;28;20036;-46
2022/02/17 08:30:24;;;;;;;3.42;1.70;;;4.20;99.90;;;;;;21074639;28;20043;-48
2022/02/17 08:40:30;;;;;;;3.00;1.70;;;5.10;99.90;;;;;;21074325;28;20085;-47
2022/02/17 08:50:34;;;;;;;2.45;1.58;;;5.90;99.90;;;;;;21073052;28;20097;-48
2022/02/17 09:00:37;;;;;;;3.67;2.30;;;6.40;99.90;;;;;;21072421;28;20085;-49
2022/02/17 09:10:40;;;;;;;2.92;1.92;;;6.80;99.90;;;;;;21072599;28;20069;-50
2022/02/17 09:20:43;;;;;;;2.65;1.90;;;7.10;99.90;;;;;;21070892;28;20114;-49
2022/02/17 09:30:46;;;;;;;2.85;2.00;;;7.70;99.90;;;;;;21070394;28;20044;-47
2022/02/17 09:40:48;;;;;;;3.45;2.20;;;8.50;98.10;;;;;;21069501;28;20438;-46
2022/02/17 09:50:51;;;;;;;3.00;2.05;;;8.70;98.20;;;;;;21069083;28;20243;-47
2022/02/17 10:00:56;;;;;;;3.20;1.90;;;9.10;97.00;;;;;;21067783;28;20051;-47
2022/02/17 10:10:59;;;;;;;2.92;1.95;;;9.30;96.40;;;;;;21067408;28;20040;-48
2022/02/17 10:21:08;;;;;;;3.42;2.35;;;9.70;95.80;;;;;;21066436;28;20553;-50
2022/02/17 10:31:32;;;;;;;3.30;1.95;;;9.50;95.80;;;;;;21066088;28;20077;-46
2022/02/17 10:41:52;;;;;;;2.53;2.20;;;9.90;95.10;;;;;;21066489;28;20036;-46
2022/02/17 10:52:01;;;;;;;3.78;3.03;;;10.00;95.20;;;;;;21053697;28;20060;-48
2022/02/17 11:02:05;;;;;;;6.60;3.00;;;10.00;94.70;;;;;;21065544;28;20491;-47
2022/02/17 11:12:08;;;;;;;3.65;2.80;;;10.10;95.00;;;;;;21065623;28;20036;-45
2022/02/17 11:22:12;;;;;;;5.63;3.40;;;10.10;94.70;;;;;;21064779;28;20097;-45
2022/02/17 11:32:19;;;;;;;3.80;2.80;;;10.30;94.80;;;;;;21064646;28;20391;-45
2022/02/17 11:42:32;;;;;;;4.15;3.00;;;10.70;95.10;;;;;;21064506;28;20114;-46
2022/02/17 11:52:36;;;;;;;5.50;3.30;;;10.60;94.50;;;;;;21066858;28;20040;-47
2022/02/17 12:02:42;;;;;;;5.85;3.30;;;10.50;95.00;;;;;;21078218;28;20040;-46
2022/02/17 12:12:45;;;;;;;13.43;3.65;;;10.50;95.20;;;;;;21077527;28;20028;-46
2022/02/17 12:22:50;;;;;;;5.10;3.38;;;10.20;95.40;;;;;;21076541;28;20668;-49
2022/02/17 12:33:13;;;;;;;5.35;2.95;;;10.30;95.70;;;;;;21075695;28;20036;-47
2022/02/17 12:43:36;;;;;;;8.02;4.22;;;11.00;94.40;;;;;;21075107;28;20368;-47
2022/02/17 12:53:54;;;;;;;5.65;3.78;;;10.80;94.50;;;;;;21074779;28;20108;-47
2022/02/17 13:03:57;;;;;;;6.22;3.72;;;10.60;95.40;;;;;;21073715;28;20483;-49
2022/02/17 13:14:10;;;;;;;6.00;4.10;;;10.00;95.50;;;;;;21073629;28;20081;-48
2022/02/17 13:24:14;;;;;;;7.97;4.53;;;9.90;95.70;;;;;;21042500;28;20073;-47
2022/02/17 13:34:23;;;;;;;9.18;5.85;;;10.10;96.20;;;;;;21072128;28;20032;-46
2022/02/17 13:44:31;;;;;;;6.30;4.70;;;10.00;96.50;;;;;;21070910;28;20058;-46
2022/02/17 13:54:49;;;;;;;8.93;5.30;;;9.90;97.10;;;;;;21070215;28;20093;-46
2022/02/17 14:05:06;;;;;;;7.07;5.10;;;9.60;97.30;;;;;;21069534;28;20577;-47
2022/02/17 14:15:11;;;;;;;8.43;5.30;;;8.80;98.40;;;;;;21068575;28;20081;-49
2022/02/17 14:25:14;;;;;;;11.27;7.63;;;8.40;99.10;;;;;;21068479;28;20028;-48
2022/02/17 14:35:16;;;;;;;15.02;8.95;;;7.80;99.90;;;;;;21068086;28;20387;-49
2022/02/17 14:45:19;;;;;;;3.17;1.67;;;7.30;99.90;;;;;;21067281;28;20036;-48
2022/02/17 14:55:22;;;;;;;2.45;1.67;;;7.50;99.90;;;;;;21067701;28;20052;-48
2022/02/17 15:05:24;;;;;;;13.30;7.93;;;7.90;99.60;;;;;;21066719;28;20044;-48
2022/02/17 15:15:27;;;;;;;5.53;3.20;;;7.70;99.90;;;;;;21066467;28;20074;-47
2022/02/17 15:25:31;;;;;;;1.85;1.08;;;7.20;99.90;;;;;;21059647;28;20097;-46
2022/02/17 15:35:34;;;;;;;1.10;0.63;;;7.30;99.50;;;;;;21080794;28;20445;-48
2022/02/17 15:45:37;;;;;;;3.10;0.75;;;7.40;98.40;;;;;;21079524;28;20028;-48
2022/02/17 15:55:39;;;;;;;1.73;0.88;;;6.90;99.70;;;;;;21078809;28;20399;-47
2022/02/17 16:05:42;;;;;;;0.95;0.50;;;6.70;97.20;;;;;;21073720;28;20357;-47
2022/02/17 16:15:44;;;;;;;1.90;0.90;;;6.80;97.80;;;;;;21077110;28;20035;-46
2022/02/17 16:25:47;;;;;;;1.70;0.80;;;6.50;97.10;;;;;;21077081;28;20032;-47
2022/02/17 16:35:51;;;;;;;1.27;0.55;;;6.60;96.80;;;;;;21075390;28;20032;-47
2022/02/17 16:45:55;;;;;;;1.27;0.75;;;6.40;97.60;;;;;;21055694;28;20043;-47
2022/02/17 16:55:57;;;;;;;1.77;0.75;;;6.10;98.60;;;;;;21073595;28;20407;-49
2022/02/17 17:06:01;;;;;;;1.30;0.60;;;5.80;98.60;;;;;;21072803;28;20089;-47
2022/02/17 17:16:04;;;;;;;2.17;0.90;;;6.00;97.70;;;;;;21055712;28;20040;-47
2022/02/17 17:26:09;;;;;;;1.25;0.70;;;6.10;97.10;;;;;;21072934;28;20093;-50
2022/02/17 17:36:13;;;;;;;1.48;0.70;;;6.20;96.70;;;;;;21054083;28;20065;-46
2022/02/17 17:46:16;;;;;;;1.38;0.70;;;6.40;97.20;;;;;;21069634;28;20035;-47
2022/02/17 17:56:20;;;;;;;1.67;0.73;;;5.90;98.40;;;;;;21050257;28;20465;-53
2022/02/17 18:06:25;;;;;;;1.30;0.70;;;5.50;98.20;;;;;;21065240;28;20089;-58
2022/02/17 18:16:28;;;;;;;1.02;0.60;;;5.90;97.20;;;;;;21067576;28;20044;-53
2022/02/17 18:26:32;;;;;;;3.25;1.15;;;5.70;97.70;;;;;;21064359;28;20066;-62
2022/02/17 18:36:35;;;;;;;2.00;1.02;;;5.60;96.20;;;;;;21067849;28;20028;-61
2022/02/17 18:46:38;;;;;;;1.92;0.98;;;5.60;97.50;;;;;;21068015;28;20040;-58
2022/02/17 18:56:42;;;;;;;1.58;0.70;;;4.90;99.60;;;;;;21064187;28;20052;-57
2022/02/17 19:06:44;;;;;;;1.75;0.80;;;4.50;99.90;;;;;;21074893;28;20078;-59
2022/02/17 19:16:48;;;;;;;1.20;0.60;;;4.40;99.90;;;;;;21071642;28;20104;-62
2022/02/17 19:26:51;;;;;;;4.45;0.80;;;4.10;99.90;;;;;;21082017;28;20093;-59
2022/02/17 19:36:54;;;;;;;1.02;0.50;;;4.10;99.90;;;;;;21079864;28;20112;-61
2022/02/17 19:47:04;;;;;;;1.52;0.70;;;4.00;99.90;;;;;;21078569;28;20044;-60
2022/02/17 19:57:06;;;;;;;1.20;0.68;;;3.90;99.90;;;;;;21078957;28;20044;-65
2022/02/17 20:07:09;;;;;;;1.25;0.60;;;3.90;99.90;;;;;;21077757;28;20100;-57
2022/02/17 20:17:13;;;;;;;1.15;0.60;;;3.80;99.90;;;;;;21075018;28;20112;-60
2022/02/17 20:27:16;;;;;;;2.35;0.60;;;3.60;99.90;;;;;;21073967;28;20032;-57
2022/02/17 20:37:19;;;;;;;1.70;0.75;;;3.60;99.90;;;;;;21074717;28;20144;-59
2022/02/17 20:57:43;;;;;;;1.80;0.63;;;3.40;99.90;;;;;;20891234;28;20072;-63
2022/02/17 21:07:46;;;;;;;2.42;0.80;;;3.30;99.90;;;;;;20876996;28;20069;-62
2022/02/17 21:17:48;;;;;;;1.00;0.57;;;3.30;99.90;;;;;;20876490;28;20041;-51
2022/02/17 21:27:51;;;;;;;0.90;0.63;;;3.40;99.90;;;;;;20875276;28;20195;-58
2022/02/17 21:37:55;;;;;;;1.92;0.57;;;3.20;99.90;;;;;;20966340;28;20051;-55
2022/02/17 21:47:57;;;;;;;4.53;1.88;;;3.00;99.90;;;;;;21066118;28;20495;-57
2022/02/17 21:58:00;;;;;;;2.28;0.80;;;3.10;99.90;;;;;;21064716;28;20031;-54
2022/02/17 22:08:05;;;;;;;2.28;0.68;;;3.00;99.90;;;;;;21064399;28;20048;-60
2022/02/17 22:18:07;;;;;;;0.75;0.40;;;3.00;99.90;;;;;;21046776;28;20040;-63
2022/02/17 22:28:11;;;;;;;0.40;0.10;;;3.00;99.90;;;;;;21063049;28;20097;-61
2022/02/17 22:38:14;;;;;;;0.55;0.30;;;3.10;99.90;;;;;;21061883;28;20428;-61
2022/02/17 22:48:16;;;;;;;0.60;0.30;;;3.20;99.90;;;;;;21044374;28;20105;-53
2022/02/17 22:58:19;;;;;;;0.57;0.30;;;3.10;99.90;;;;;;21062386;28;20036;-47
2022/02/17 23:18:43;;;;;;;0.70;0.20;;;3.00;99.90;;;;;;21065064;28;20487;-48
2022/02/17 23:28:49;;;;;;;1.77;0.30;;;3.20;99.90;;;;;;21064961;28;20551;-49
2022/02/17 23:38:54;;;;;;;1.52;0.55;;;3.30;99.90;;;;;;21065193;28;20036;-47
2022/02/17 23:48:59;;;;;;;1.38;0.40;;;3.10;99.90;;;;;;21068597;28;20048;-49
2022/02/17 23:59:02;;;;;;;1.38;0.20;;;2.90;99.90;;;;;;21078522;28;20039;-47
